createdAt,value
2022-09-26T00:00:04.661Z,95025.00
2022-09-26T00:00:14.612Z,95022.00
2022-09-26T00:00:24.770Z,95025.00
2022-09-26T00:00:34.612Z,95025.00
2022-09-26T00:00:44.692Z,95024.00
2022-09-26T00:00:54.566Z,95022.00
2022-09-26T00:01:04.783Z,95029.00
2022-09-26T00:01:14.677Z,95025.00
2022-09-26T00:01:24.591Z,95025.00
2022-09-26T00:01:34.589Z,95024.00
2022-09-26T00:01:44.487Z,95026.00
2022-09-26T00:01:54.658Z,95026.00
2022-09-26T00:02:08.938Z,95023.00
2022-09-26T00:02:14.709Z,95023.00
2022-09-26T00:02:24.628Z,95023.00
2022-09-26T00:02:34.580Z,95024.00
2022-09-26T00:02:44.489Z,95025.00
2022-09-26T00:02:54.701Z,95025.00
2022-09-26T00:03:04.595Z,95022.00
2022-09-26T00:03:14.713Z,95024.00
2022-09-26T00:03:24.551Z,95023.00
2022-09-26T00:03:34.497Z,95021.00
2022-09-26T00:03:44.724Z,95024.00
2022-09-26T00:03:54.578Z,95023.00
2022-09-26T00:04:04.451Z,95024.00
2022-09-26T00:04:14.668Z,95023.00
2022-09-26T00:04:27.927Z,95023.00
2022-09-26T00:04:34.568Z,95020.00
2022-09-26T00:04:44.694Z,95022.00
2022-09-26T00:04:54.701Z,95024.00
2022-09-26T00:05:04.685Z,95023.00
2022-09-26T00:05:14.723Z,95024.00
2022-09-26T00:05:24.676Z,95020.00
2022-09-26T00:05:34.413Z,95021.00
2022-09-26T00:05:44.596Z,95020.00
2022-09-26T00:05:54.629Z,95020.00
2022-09-26T00:06:04.471Z,95025.00
2022-09-26T00:06:14.686Z,95019.00
2022-09-26T00:06:24.406Z,95022.00
2022-09-26T00:06:34.420Z,95022.00
2022-09-26T00:06:44.738Z,95023.00
2022-09-26T00:06:54.670Z,95022.00
2022-09-26T00:07:04.442Z,95024.00
2022-09-26T00:07:14.628Z,95023.00
2022-09-26T00:07:24.546Z,95020.00
2022-09-26T00:07:35.277Z,95021.00
2022-09-26T00:07:44.766Z,95024.00
2022-09-26T00:07:54.528Z,95018.00
2022-09-26T00:08:04.441Z,95020.00
2022-09-26T00:08:14.550Z,95025.00
2022-09-26T00:08:24.554Z,95022.00
2022-09-26T00:08:34.629Z,95023.00
2022-09-26T00:08:44.498Z,95022.00
2022-09-26T00:08:54.426Z,95020.00
2022-09-26T00:09:04.557Z,95023.00
2022-09-26T00:09:14.889Z,95021.00
2022-09-26T00:09:24.647Z,95020.00
2022-09-26T00:09:34.648Z,95023.00
2022-09-26T00:09:44.670Z,95018.00
2022-09-26T00:09:54.638Z,95019.00
2022-09-26T00:10:04.456Z,95019.00
2022-09-26T00:10:14.626Z,95019.00
2022-09-26T00:10:24.609Z,95020.00
2022-09-26T00:10:34.582Z,95019.00
2022-09-26T00:10:44.620Z,95021.00
2022-09-26T00:10:54.582Z,95020.00
2022-09-26T00:11:04.567Z,95020.00
2022-09-26T00:11:14.564Z,95021.00
2022-09-26T00:11:24.668Z,95021.00
2022-09-26T00:11:34.555Z,95021.00
2022-09-26T00:11:44.607Z,95025.00
2022-09-26T00:11:54.465Z,95020.00
2022-09-26T00:12:04.660Z,95021.00
2022-09-26T00:12:14.528Z,95022.00
2022-09-26T00:12:24.500Z,95022.00
2022-09-26T00:12:34.554Z,95022.00
2022-09-26T00:12:44.635Z,95026.00
2022-09-26T00:12:54.538Z,95021.00
2022-09-26T00:13:04.595Z,95019.00
2022-09-26T00:13:14.698Z,95025.00
2022-09-26T00:13:24.596Z,95020.00
2022-09-26T00:13:34.656Z,95022.00
2022-09-26T00:13:49.155Z,95025.00
2022-09-26T00:13:54.463Z,95021.00
2022-09-26T00:14:04.586Z,95018.00
2022-09-26T00:14:14.732Z,95021.00
2022-09-26T00:14:24.671Z,95022.00
2022-09-26T00:14:34.587Z,95023.00
2022-09-26T00:14:44.411Z,95021.00
2022-09-26T00:14:54.658Z,95021.00
2022-09-26T00:15:04.476Z,95022.00
2022-09-26T00:15:14.616Z,95024.00
2022-09-26T00:15:24.680Z,95021.00
2022-09-26T00:15:34.681Z,95022.00
2022-09-26T00:15:44.517Z,95020.00
2022-09-26T00:15:54.525Z,95020.00
2022-09-26T00:16:04.654Z,95018.00
2022-09-26T00:16:14.648Z,95018.00
2022-09-26T00:16:24.517Z,95020.00
2022-09-26T00:16:34.648Z,95020.00
2022-09-26T00:16:44.555Z,95017.00
2022-09-26T00:16:54.692Z,95016.00
2022-09-26T00:17:04.582Z,95015.00
2022-09-26T00:17:14.656Z,95019.00
2022-09-26T00:17:24.644Z,95020.00
2022-09-26T00:17:34.507Z,95020.00
2022-09-26T00:17:44.468Z,95018.00
2022-09-26T00:17:54.709Z,95018.00
2022-09-26T00:18:04.510Z,95017.00
2022-09-26T00:18:14.426Z,95017.00
2022-09-26T00:18:24.613Z,95016.00
2022-09-26T00:18:34.641Z,95018.00
2022-09-26T00:18:44.487Z,95020.00
2022-09-26T00:18:54.546Z,95017.00
2022-09-26T00:19:04.619Z,95016.00
2022-09-26T00:19:14.757Z,95017.00
2022-09-26T00:19:24.577Z,95021.00
2022-09-26T00:19:34.645Z,95016.00
2022-09-26T00:19:44.567Z,95019.00
2022-09-26T00:19:54.645Z,95015.00
2022-09-26T00:20:04.539Z,95014.00
2022-09-26T00:20:14.709Z,95018.00
2022-09-26T00:20:24.596Z,95012.00
2022-09-26T00:20:34.430Z,95017.00
2022-09-26T00:20:44.646Z,95017.00
2022-09-26T00:20:54.626Z,95019.00
2022-09-26T00:21:04.616Z,95015.00
2022-09-26T00:21:14.496Z,95015.00
2022-09-26T00:21:24.559Z,95018.00
2022-09-26T00:21:34.654Z,95020.00
2022-09-26T00:21:44.575Z,95018.00
2022-09-26T00:21:54.553Z,95017.00
2022-09-26T00:22:04.410Z,95017.00
2022-09-26T00:22:14.720Z,95018.00
2022-09-26T00:22:24.612Z,95018.00
2022-09-26T00:22:34.594Z,95013.00
2022-09-26T00:22:44.577Z,95016.00
2022-09-26T00:22:54.429Z,95017.00
2022-09-26T00:23:04.458Z,95014.00
2022-09-26T00:23:14.454Z,95013.00
2022-09-26T00:23:24.523Z,95012.00
2022-09-26T00:23:34.524Z,95014.00
2022-09-26T00:23:44.594Z,95019.00
2022-09-26T00:23:54.468Z,95016.00
2022-09-26T00:24:04.459Z,95016.00
2022-09-26T00:24:14.561Z,95013.00
2022-09-26T00:24:24.678Z,95017.00
2022-09-26T00:24:34.449Z,95016.00
2022-09-26T00:24:44.521Z,95011.00
2022-09-26T00:24:54.610Z,95015.00
2022-09-26T00:25:04.673Z,95013.00
2022-09-26T00:25:14.711Z,95018.00
2022-09-26T00:25:24.481Z,95016.00
2022-09-26T00:25:34.691Z,95012.00
2022-09-26T00:25:44.491Z,95015.00
2022-09-26T00:25:54.510Z,95016.00
2022-09-26T00:26:04.496Z,95015.00
2022-09-26T00:26:14.504Z,95017.00
2022-09-26T00:26:24.699Z,95019.00
2022-09-26T00:26:34.497Z,95017.00
2022-09-26T00:26:44.567Z,95016.00
2022-09-26T00:26:54.428Z,95014.00
2022-09-26T00:27:04.464Z,95017.00
2022-09-26T00:27:14.629Z,95017.00
2022-09-26T00:27:24.470Z,95013.00
2022-09-26T00:27:34.635Z,95018.00
2022-09-26T00:27:44.566Z,95016.00
2022-09-26T00:27:54.427Z,95018.00
2022-09-26T00:28:04.486Z,95014.00
2022-09-26T00:28:14.463Z,95016.00
2022-09-26T00:28:24.663Z,95017.00
2022-09-26T00:28:34.604Z,95016.00
2022-09-26T00:28:44.579Z,95012.00
2022-09-26T00:28:54.634Z,95013.00
2022-09-26T00:29:04.587Z,95015.00
2022-09-26T00:29:14.777Z,95016.00
2022-09-26T00:29:24.450Z,95012.00
2022-09-26T00:29:34.778Z,95014.00
2022-09-26T00:29:44.440Z,95014.00
2022-09-26T00:29:54.653Z,95014.00
2022-09-26T00:30:04.481Z,95014.00
2022-09-26T00:30:14.712Z,95014.00
2022-09-26T00:30:24.714Z,95014.00
2022-09-26T00:30:34.536Z,95012.00
2022-09-26T00:30:44.617Z,95013.00
2022-09-26T00:30:54.801Z,95014.00
2022-09-26T00:31:04.589Z,95013.00
2022-09-26T00:31:14.801Z,95009.00
2022-09-26T00:31:24.679Z,95014.00
2022-09-26T00:31:34.568Z,95012.00
2022-09-26T00:31:44.539Z,95016.00
2022-09-26T00:31:54.593Z,95011.00
2022-09-26T00:32:04.625Z,95014.00
2022-09-26T00:32:14.626Z,95011.00
2022-09-26T00:32:24.570Z,95011.00
2022-09-26T00:32:34.590Z,95012.00
2022-09-26T00:32:44.714Z,95017.00
2022-09-26T00:32:54.518Z,95012.00
2022-09-26T00:33:04.660Z,95016.00
2022-09-26T00:33:14.555Z,95016.00
2022-09-26T00:33:24.473Z,95015.00
2022-09-26T00:33:34.618Z,95010.00
2022-09-26T00:33:44.557Z,95014.00
2022-09-26T00:33:54.694Z,95011.00
2022-09-26T00:34:04.476Z,95011.00
2022-09-26T00:34:14.564Z,95013.00
2022-09-26T00:34:24.642Z,95011.00
2022-09-26T00:34:34.435Z,95014.00
2022-09-26T00:34:44.585Z,95012.00
2022-09-26T00:34:54.504Z,95009.00
2022-09-26T00:35:04.602Z,95011.00
2022-09-26T00:35:14.716Z,95011.00
2022-09-26T00:35:24.509Z,95011.00
2022-09-26T00:35:34.465Z,95013.00
2022-09-26T00:35:44.435Z,95009.00
2022-09-26T00:35:54.610Z,95008.00
2022-09-26T00:36:04.652Z,95011.00
2022-09-26T00:36:14.520Z,95010.00
2022-09-26T00:36:36.897Z,95008.00
2022-09-26T00:36:38.475Z,95008.00
2022-09-26T00:36:44.728Z,95007.00
2022-09-26T00:36:54.703Z,95008.00
2022-09-26T00:37:04.599Z,95011.00
2022-09-26T00:37:14.537Z,95005.00
2022-09-26T00:37:24.628Z,95012.00
2022-09-26T00:37:34.592Z,95010.00
2022-09-26T00:37:44.439Z,95011.00
2022-09-26T00:37:54.566Z,95008.00
2022-09-26T00:38:04.478Z,95006.00
2022-09-26T00:38:14.746Z,95011.00
2022-09-26T00:38:24.626Z,95008.00
2022-09-26T00:38:34.417Z,95005.00
2022-09-26T00:38:44.484Z,95010.00
2022-09-26T00:38:54.622Z,95009.00
2022-09-26T00:39:04.481Z,95008.00
2022-09-26T00:39:14.770Z,95012.00
2022-09-26T00:39:24.429Z,95011.00
2022-09-26T00:39:34.458Z,95013.00
2022-09-26T00:39:44.462Z,95009.00
2022-09-26T00:39:54.573Z,95007.00
2022-09-26T00:40:04.475Z,95007.00
2022-09-26T00:40:14.740Z,95008.00
2022-09-26T00:40:24.699Z,95008.00
2022-09-26T00:40:34.607Z,95010.00
2022-09-26T00:40:44.673Z,95011.00
2022-09-26T00:40:54.546Z,95007.00
2022-09-26T00:41:04.600Z,95008.00
2022-09-26T00:41:14.735Z,95008.00
2022-09-26T00:41:24.551Z,95004.00
2022-09-26T00:41:34.426Z,95006.00
2022-09-26T00:41:44.632Z,95009.00
2022-09-26T00:41:54.689Z,95005.00
2022-09-26T00:42:04.589Z,95009.00
2022-09-26T00:42:14.528Z,95006.00
2022-09-26T00:42:24.413Z,95007.00
2022-09-26T00:42:34.644Z,95004.00
2022-09-26T00:42:44.601Z,95008.00
2022-09-26T00:42:54.529Z,95006.00
2022-09-26T00:43:04.543Z,95009.00
2022-09-26T00:43:14.564Z,95012.00
2022-09-26T00:43:24.530Z,95010.00
2022-09-26T00:43:34.496Z,95009.00
2022-09-26T00:43:44.411Z,95011.00
2022-09-26T00:43:54.554Z,95011.00
2022-09-26T00:44:04.552Z,95008.00
2022-09-26T00:44:14.470Z,95014.00
2022-09-26T00:44:24.655Z,95009.00
2022-09-26T00:44:34.609Z,95011.00
2022-09-26T00:44:44.518Z,95009.00
2022-09-26T00:44:54.589Z,95008.00
2022-09-26T00:45:04.614Z,95010.00
2022-09-26T00:45:14.604Z,95008.00
2022-09-26T00:45:24.623Z,95011.00
2022-09-26T00:45:34.564Z,95010.00
2022-09-26T00:45:44.624Z,95010.00
2022-09-26T00:45:54.502Z,95011.00
2022-09-26T00:46:04.625Z,95008.00
2022-09-26T00:46:14.481Z,95012.00
2022-09-26T00:46:24.639Z,95011.00
2022-09-26T00:46:34.590Z,95009.00
2022-09-26T00:46:44.436Z,95008.00
2022-09-26T00:46:54.560Z,95011.00
2022-09-26T00:47:04.666Z,95011.00
2022-09-26T00:47:14.620Z,95007.00
2022-09-26T00:47:24.678Z,95010.00
2022-09-26T00:47:34.585Z,95009.00
2022-09-26T00:47:44.487Z,95012.00
2022-09-26T00:47:54.574Z,95009.00
2022-09-26T00:48:04.707Z,95007.00
2022-09-26T00:48:14.535Z,95010.00
2022-09-26T00:48:24.447Z,95008.00
2022-09-26T00:48:34.426Z,95009.00
2022-09-26T00:48:44.509Z,95006.00
2022-09-26T00:48:54.441Z,95010.00
2022-09-26T00:49:04.542Z,95011.00
2022-09-26T00:49:14.592Z,95012.00
2022-09-26T00:49:24.496Z,95012.00
2022-09-26T00:49:34.558Z,95008.00
2022-09-26T00:49:44.609Z,95011.00
2022-09-26T00:49:54.471Z,95009.00
2022-09-26T00:50:04.446Z,95009.00
2022-09-26T00:50:14.461Z,95007.00
2022-09-26T00:50:24.660Z,95009.00
2022-09-26T00:50:34.603Z,95006.00
2022-09-26T00:50:44.509Z,95006.00
2022-09-26T00:50:54.614Z,95006.00
2022-09-26T00:51:04.639Z,95004.00
2022-09-26T00:51:14.535Z,95005.00
2022-09-26T00:51:24.466Z,95007.00
2022-09-26T00:51:34.511Z,95004.00
2022-09-26T00:51:44.618Z,95003.00
2022-09-26T00:51:54.664Z,95000.00
2022-09-26T00:52:04.425Z,95002.00
2022-09-26T00:52:14.553Z,95003.00
2022-09-26T00:52:24.516Z,95001.00
2022-09-26T00:52:34.605Z,95002.00
2022-09-26T00:52:44.554Z,95002.00
2022-09-26T00:52:54.452Z,95001.00
2022-09-26T00:53:04.591Z,95004.00
2022-09-26T00:53:14.495Z,95002.00
2022-09-26T00:53:24.517Z,95002.00
2022-09-26T00:53:34.617Z,95001.00
2022-09-26T00:53:44.513Z,95002.00
2022-09-26T00:53:54.556Z,95002.00
2022-09-26T00:54:04.629Z,95001.00
2022-09-26T00:54:14.495Z,95005.00
2022-09-26T00:54:24.470Z,95001.00
2022-09-26T00:54:34.514Z,95002.00
2022-09-26T00:54:44.679Z,95002.00
2022-09-26T00:54:54.667Z,95000.00
2022-09-26T00:55:04.576Z,94999.00
2022-09-26T00:55:14.644Z,95003.00
2022-09-26T00:55:24.672Z,94999.00
2022-09-26T00:55:34.721Z,94999.00
2022-09-26T00:55:44.616Z,94999.00
2022-09-26T00:55:54.501Z,95000.00
2022-09-26T00:56:04.588Z,94999.00
2022-09-26T00:56:14.440Z,94998.00
2022-09-26T00:56:24.528Z,94997.00
2022-09-26T00:56:34.460Z,94996.00
2022-09-26T00:56:44.751Z,94999.00
2022-09-26T00:56:54.425Z,95002.00
2022-09-26T00:57:04.608Z,94997.00
2022-09-26T00:57:14.416Z,94996.00
2022-09-26T00:57:24.555Z,94996.00
2022-09-26T00:57:34.640Z,94995.00
2022-09-26T00:57:44.684Z,94996.00
2022-09-26T00:57:54.614Z,94993.00
2022-09-26T00:58:04.590Z,94993.00
2022-09-26T00:58:14.550Z,94995.00
2022-09-26T00:58:24.641Z,94994.00
2022-09-26T00:58:34.701Z,94994.00
2022-09-26T00:58:44.554Z,94991.00
2022-09-26T00:58:54.511Z,94996.00
2022-09-26T00:59:04.676Z,94995.00
2022-09-26T00:59:14.691Z,94993.00
2022-09-26T00:59:24.448Z,94995.00
2022-09-26T00:59:34.662Z,94996.00
2022-09-26T00:59:44.448Z,94992.00
2022-09-26T00:59:54.434Z,94990.00
2022-09-26T01:00:04.607Z,94993.00
2022-09-26T01:00:14.484Z,94996.00
2022-09-26T01:00:24.565Z,94994.00
2022-09-26T01:00:34.495Z,94993.00
2022-09-26T01:00:44.531Z,94992.00
2022-09-26T01:00:54.787Z,94995.00
2022-09-26T01:01:04.746Z,94992.00
2022-09-26T01:01:14.755Z,94991.00
2022-09-26T01:01:24.784Z,94990.00
2022-09-26T01:01:34.752Z,94992.00
2022-09-26T01:01:44.573Z,94989.00
2022-09-26T01:01:54.640Z,94993.00
2022-09-26T01:02:04.831Z,94992.00
2022-09-26T01:02:14.721Z,94992.00
2022-09-26T01:02:24.954Z,94991.00
2022-09-26T01:02:34.701Z,94987.00
2022-09-26T01:02:44.497Z,94986.00
2022-09-26T01:02:54.429Z,94992.00
2022-09-26T01:03:04.677Z,94990.00
2022-09-26T01:03:14.707Z,94988.00
2022-09-26T01:03:24.568Z,94987.00
2022-09-26T01:03:34.677Z,94982.00
2022-09-26T01:03:44.566Z,94987.00
2022-09-26T01:03:54.687Z,94985.00
2022-09-26T01:04:04.606Z,94984.00
2022-09-26T01:04:14.476Z,94981.00
2022-09-26T01:04:24.539Z,94983.00
2022-09-26T01:04:34.493Z,94985.00
2022-09-26T01:04:44.613Z,94985.00
2022-09-26T01:04:54.568Z,94983.00
2022-09-26T01:05:04.485Z,94986.00
2022-09-26T01:05:14.648Z,94989.00
2022-09-26T01:05:24.623Z,94985.00
2022-09-26T01:05:34.631Z,94986.00
2022-09-26T01:05:44.604Z,94984.00
2022-09-26T01:05:54.417Z,94988.00
2022-09-26T01:06:04.430Z,94986.00
2022-09-26T01:06:14.455Z,94985.00
2022-09-26T01:06:24.574Z,94985.00
2022-09-26T01:06:34.489Z,94984.00
2022-09-26T01:06:44.556Z,94985.00
2022-09-26T01:06:54.571Z,94980.00
2022-09-26T01:07:04.467Z,94985.00
2022-09-26T01:07:14.678Z,94982.00
2022-09-26T01:07:24.585Z,94982.00
2022-09-26T01:07:34.611Z,94981.00
2022-09-26T01:07:44.599Z,94980.00
2022-09-26T01:07:54.675Z,94982.00
2022-09-26T01:08:04.605Z,94979.00
2022-09-26T01:08:14.554Z,94981.00
2022-09-26T01:08:24.558Z,94980.00
2022-09-26T01:08:34.482Z,94980.00
2022-09-26T01:08:44.681Z,94984.00
2022-09-26T01:08:54.654Z,94986.00
2022-09-26T01:09:04.462Z,94981.00
2022-09-26T01:09:14.592Z,94983.00
2022-09-26T01:09:24.514Z,94984.00
2022-09-26T01:09:34.502Z,94980.00
2022-09-26T01:09:44.659Z,94983.00
2022-09-26T01:09:54.555Z,94982.00
2022-09-26T01:10:04.481Z,94980.00
2022-09-26T01:10:14.652Z,94978.00
2022-09-26T01:10:24.698Z,94979.00
2022-09-26T01:10:34.462Z,94980.00
2022-09-26T01:10:44.581Z,94980.00
2022-09-26T01:10:54.434Z,94980.00
2022-09-26T01:11:04.606Z,94982.00
2022-09-26T01:11:17.005Z,94982.00
2022-09-26T01:11:24.633Z,94980.00
2022-09-26T01:11:34.541Z,94975.00
2022-09-26T01:11:44.642Z,94980.00
2022-09-26T01:11:54.642Z,94980.00
2022-09-26T01:12:04.738Z,94977.00
2022-09-26T01:12:14.506Z,94979.00
2022-09-26T01:12:24.571Z,94979.00
2022-09-26T01:12:34.471Z,94976.00
2022-09-26T01:12:44.685Z,94979.00
2022-09-26T01:12:54.503Z,94977.00
2022-09-26T01:13:04.516Z,94978.00
2022-09-26T01:13:14.558Z,94976.00
2022-09-26T01:13:24.615Z,94976.00
2022-09-26T01:13:34.727Z,94973.00
2022-09-26T01:13:44.615Z,94973.00
2022-09-26T01:13:54.718Z,94975.00
2022-09-26T01:14:04.662Z,94976.00
2022-09-26T01:14:14.487Z,94976.00
2022-09-26T01:14:24.646Z,94976.00
2022-09-26T01:14:34.634Z,94973.00
2022-09-26T01:14:44.457Z,94975.00
2022-09-26T01:14:54.618Z,94973.00
2022-09-26T01:15:04.600Z,94974.00
2022-09-26T01:15:14.504Z,94976.00
2022-09-26T01:15:24.503Z,94971.00
2022-09-26T01:15:34.497Z,94977.00
2022-09-26T01:15:44.489Z,94975.00
2022-09-26T01:15:54.612Z,94975.00
2022-09-26T01:16:04.725Z,94976.00
2022-09-26T01:16:14.709Z,94977.00
2022-09-26T01:16:24.751Z,94977.00
2022-09-26T01:16:34.732Z,94975.00
2022-09-26T01:16:45.395Z,94972.00
2022-09-26T01:16:54.627Z,94975.00
2022-09-26T01:17:04.646Z,94975.00
2022-09-26T01:17:14.614Z,94973.00
2022-09-26T01:17:24.574Z,94976.00
2022-09-26T01:17:34.566Z,94975.00
2022-09-26T01:17:44.615Z,94974.00
2022-09-26T01:17:54.496Z,94971.00
2022-09-26T01:18:04.458Z,94970.00
2022-09-26T01:18:14.554Z,94974.00
2022-09-26T01:18:24.477Z,94973.00
2022-09-26T01:18:34.662Z,94972.00
2022-09-26T01:18:44.410Z,94973.00
2022-09-26T01:18:54.550Z,94973.00
2022-09-26T01:19:04.489Z,94973.00
2022-09-26T01:19:14.649Z,94977.00
2022-09-26T01:19:24.584Z,94972.00
2022-09-26T01:19:34.438Z,94971.00
2022-09-26T01:19:44.652Z,94973.00
2022-09-26T01:19:54.537Z,94971.00
2022-09-26T01:20:04.689Z,94970.00
2022-09-26T01:20:14.545Z,94970.00
2022-09-26T01:20:24.655Z,94973.00
2022-09-26T01:20:34.729Z,94974.00
2022-09-26T01:20:44.676Z,94971.00
2022-09-26T01:20:54.619Z,94971.00
2022-09-26T01:21:04.687Z,94971.00
2022-09-26T01:21:16.585Z,94972.00
2022-09-26T01:21:24.688Z,94971.00
2022-09-26T01:21:34.409Z,94972.00
2022-09-26T01:21:44.625Z,94969.00
2022-09-26T01:21:54.448Z,94967.00
2022-09-26T01:22:04.583Z,94970.00
2022-09-26T01:22:14.612Z,94973.00
2022-09-26T01:22:24.724Z,94972.00
2022-09-26T01:22:34.512Z,94972.00
2022-09-26T01:22:44.468Z,94974.00
2022-09-26T01:22:54.536Z,94972.00
2022-09-26T01:23:04.435Z,94971.00
2022-09-26T01:23:14.659Z,94971.00
2022-09-26T01:23:24.687Z,94972.00
2022-09-26T01:23:34.571Z,94972.00
2022-09-26T01:23:44.529Z,94972.00
2022-09-26T01:23:54.587Z,94971.00
2022-09-26T01:24:04.549Z,94969.00
2022-09-26T01:24:14.636Z,94970.00
2022-09-26T01:24:24.434Z,94972.00
2022-09-26T01:24:34.645Z,94969.00
2022-09-26T01:24:44.586Z,94972.00
2022-09-26T01:24:54.722Z,94970.00
2022-09-26T01:25:04.713Z,94973.00
2022-09-26T01:25:14.700Z,94972.00
2022-09-26T01:25:24.609Z,94975.00
2022-09-26T01:25:34.645Z,94973.00
2022-09-26T01:25:44.502Z,94973.00
2022-09-26T01:25:54.727Z,94974.00
2022-09-26T01:26:04.635Z,94970.00
2022-09-26T01:26:14.617Z,94972.00
2022-09-26T01:26:24.655Z,94975.00
2022-09-26T01:26:34.692Z,94974.00
2022-09-26T01:26:44.669Z,94974.00
2022-09-26T01:26:54.488Z,94970.00
2022-09-26T01:27:04.467Z,94975.00
2022-09-26T01:27:14.554Z,94971.00
2022-09-26T01:27:24.483Z,94977.00
2022-09-26T01:27:34.609Z,94976.00
2022-09-26T01:27:44.414Z,94977.00
2022-09-26T01:27:54.650Z,94977.00
2022-09-26T01:28:04.584Z,94975.00
2022-09-26T01:28:14.643Z,94983.00
2022-09-26T01:28:24.438Z,94978.00
2022-09-26T01:28:34.500Z,94974.00
2022-09-26T01:28:44.572Z,94980.00
2022-09-26T01:28:54.621Z,94972.00
2022-09-26T01:29:04.682Z,94976.00
2022-09-26T01:29:14.742Z,94977.00
2022-09-26T01:29:24.549Z,94977.00
2022-09-26T01:29:34.675Z,94975.00
2022-09-26T01:29:44.699Z,94978.00
2022-09-26T01:29:54.710Z,94975.00
2022-09-26T01:30:04.562Z,94974.00
2022-09-26T01:30:14.413Z,94978.00
2022-09-26T01:30:24.752Z,94981.00
2022-09-26T01:30:34.647Z,94975.00
2022-09-26T01:30:44.588Z,94977.00
2022-09-26T01:30:54.500Z,94977.00
2022-09-26T01:31:04.677Z,94974.00
2022-09-26T01:31:14.575Z,94976.00
2022-09-26T01:31:24.588Z,94975.00
2022-09-26T01:31:34.470Z,94978.00
2022-09-26T01:31:44.515Z,94977.00
2022-09-26T01:31:54.480Z,94975.00
2022-09-26T01:32:04.618Z,94974.00
2022-09-26T01:32:19.287Z,94970.00
2022-09-26T01:32:24.621Z,94973.00
2022-09-26T01:32:34.689Z,94974.00
2022-09-26T01:32:44.567Z,94968.00
2022-09-26T01:32:54.570Z,94969.00
2022-09-26T01:33:04.628Z,94973.00
2022-09-26T01:33:14.608Z,94972.00
2022-09-26T01:33:24.547Z,94972.00
2022-09-26T01:33:34.532Z,94972.00
2022-09-26T01:33:44.430Z,94976.00
2022-09-26T01:33:54.617Z,94976.00
2022-09-26T01:34:04.652Z,94977.00
2022-09-26T01:34:14.659Z,94969.00
2022-09-26T01:34:24.479Z,94979.00
2022-09-26T01:34:34.549Z,94974.00
2022-09-26T01:34:44.592Z,94973.00
2022-09-26T01:34:54.494Z,94974.00
2022-09-26T01:35:04.664Z,94978.00
2022-09-26T01:35:14.673Z,94973.00
2022-09-26T01:35:24.460Z,94970.00
2022-09-26T01:35:34.718Z,94972.00
2022-09-26T01:35:44.601Z,94969.00
2022-09-26T01:35:54.603Z,94972.00
2022-09-26T01:36:04.483Z,94973.00
2022-09-26T01:36:14.502Z,94969.00
2022-09-26T01:36:24.574Z,94971.00
2022-09-26T01:36:34.686Z,94973.00
2022-09-26T01:36:44.701Z,94975.00
2022-09-26T01:36:54.566Z,94973.00
2022-09-26T01:37:04.511Z,94971.00
2022-09-26T01:37:14.431Z,94971.00
2022-09-26T01:37:24.669Z,94972.00
2022-09-26T01:37:34.684Z,94970.00
2022-09-26T01:37:44.681Z,94970.00
2022-09-26T01:37:54.408Z,94969.00
2022-09-26T01:38:04.494Z,94968.00
2022-09-26T01:38:14.717Z,94969.00
2022-09-26T01:38:24.606Z,94972.00
2022-09-26T01:38:34.638Z,94969.00
2022-09-26T01:38:44.658Z,94971.00
2022-09-26T01:38:54.498Z,94969.00
2022-09-26T01:39:04.667Z,94972.00
2022-09-26T01:39:14.673Z,94968.00
2022-09-26T01:39:24.680Z,94974.00
2022-09-26T01:39:34.556Z,94969.00
2022-09-26T01:39:44.488Z,94970.00
2022-09-26T01:39:54.477Z,94975.00
2022-09-26T01:40:07.080Z,94975.00
2022-09-26T01:40:14.780Z,94973.00
2022-09-26T01:40:24.616Z,94976.00
2022-09-26T01:40:34.546Z,94974.00
2022-09-26T01:40:48.335Z,94975.00
2022-09-26T01:40:54.757Z,94971.00
2022-09-26T01:41:04.544Z,94973.00
2022-09-26T01:41:14.640Z,94975.00
2022-09-26T01:41:24.431Z,94969.00
2022-09-26T01:41:34.542Z,94969.00
2022-09-26T01:41:44.639Z,94974.00
2022-09-26T01:41:54.526Z,94970.00
2022-09-26T01:42:04.631Z,94974.00
2022-09-26T01:42:14.455Z,94973.00
2022-09-26T01:42:24.657Z,94970.00
2022-09-26T01:42:34.563Z,94971.00
2022-09-26T01:42:44.524Z,94970.00
2022-09-26T01:42:54.435Z,94965.00
2022-09-26T01:43:04.668Z,94969.00
2022-09-26T01:43:14.562Z,94970.00
2022-09-26T01:43:24.600Z,94971.00
2022-09-26T01:43:34.615Z,94971.00
2022-09-26T01:43:44.695Z,94970.00
2022-09-26T01:43:54.483Z,94969.00
2022-09-26T01:44:04.454Z,94969.00
2022-09-26T01:44:14.730Z,94971.00
2022-09-26T01:44:24.585Z,94966.00
2022-09-26T01:44:34.659Z,94969.00
2022-09-26T01:44:44.487Z,94968.00
2022-09-26T01:44:54.587Z,94964.00
2022-09-26T01:45:04.660Z,94967.00
2022-09-26T01:45:14.452Z,94967.00
2022-09-26T01:45:24.529Z,94970.00
2022-09-26T01:45:34.722Z,94966.00
2022-09-26T01:45:44.773Z,94965.00
2022-09-26T01:45:54.663Z,94966.00
2022-09-26T01:46:04.524Z,94965.00
2022-09-26T01:46:14.749Z,94965.00
2022-09-26T01:46:24.702Z,94966.00
2022-09-26T01:46:34.411Z,94963.00
2022-09-26T01:46:44.887Z,94966.00
2022-09-26T01:46:54.584Z,94969.00
2022-09-26T01:47:04.550Z,94965.00
2022-09-26T01:47:14.419Z,94965.00
2022-09-26T01:47:24.648Z,94965.00
2022-09-26T01:47:34.636Z,94967.00
2022-09-26T01:47:44.670Z,94967.00
2022-09-26T01:47:54.656Z,94966.00
2022-09-26T01:48:04.577Z,94964.00
2022-09-26T01:48:14.666Z,94965.00
2022-09-26T01:48:24.554Z,94967.00
2022-09-26T01:48:34.552Z,94966.00
2022-09-26T01:48:44.518Z,94964.00
2022-09-26T01:48:54.545Z,94962.00
2022-09-26T01:49:04.674Z,94966.00
2022-09-26T01:49:14.848Z,94964.00
2022-09-26T01:49:24.438Z,94968.00
2022-09-26T01:49:34.638Z,94966.00
2022-09-26T01:49:44.547Z,94965.00
2022-09-26T01:49:54.688Z,94965.00
2022-09-26T01:50:04.667Z,94965.00
2022-09-26T01:50:14.504Z,94969.00
2022-09-26T01:50:24.703Z,94965.00
2022-09-26T01:50:34.448Z,94965.00
2022-09-26T01:50:44.801Z,94967.00
2022-09-26T01:50:54.698Z,94965.00
2022-09-26T01:51:04.507Z,94964.00
2022-09-26T01:51:14.575Z,94964.00
2022-09-26T01:51:24.687Z,94964.00
2022-09-26T01:51:34.693Z,94964.00
2022-09-26T01:51:44.532Z,94966.00
2022-09-26T01:51:54.700Z,94966.00
2022-09-26T01:52:04.677Z,94965.00
2022-09-26T01:52:14.519Z,94964.00
2022-09-26T01:52:24.521Z,94962.00
2022-09-26T01:52:34.496Z,94961.00
2022-09-26T01:52:44.578Z,94963.00
2022-09-26T01:52:54.520Z,94962.00
2022-09-26T01:53:04.433Z,94963.00
2022-09-26T01:53:14.529Z,94961.00
2022-09-26T01:53:24.661Z,94962.00
2022-09-26T01:53:34.439Z,94966.00
2022-09-26T01:53:44.586Z,94962.00
2022-09-26T01:53:54.500Z,94965.00
2022-09-26T01:54:04.567Z,94966.00
2022-09-26T01:54:14.613Z,94964.00
2022-09-26T01:54:24.638Z,94963.00
2022-09-26T01:54:34.438Z,94965.00
2022-09-26T01:54:45.360Z,94966.00
2022-09-26T01:54:54.701Z,94961.00
2022-09-26T01:55:04.588Z,94961.00
2022-09-26T01:55:14.621Z,94962.00
2022-09-26T01:55:24.668Z,94961.00
2022-09-26T01:55:34.619Z,94961.00
2022-09-26T01:55:44.551Z,94959.00
2022-09-26T01:55:54.480Z,94960.00
2022-09-26T01:56:04.577Z,94962.00
2022-09-26T01:56:14.663Z,94963.00
2022-09-26T01:56:24.664Z,94960.00
2022-09-26T01:56:34.545Z,94962.00
2022-09-26T01:56:44.548Z,94964.00
2022-09-26T01:56:54.590Z,94963.00
2022-09-26T01:57:04.414Z,94964.00
2022-09-26T01:57:14.553Z,94960.00
2022-09-26T01:57:24.449Z,94962.00